sensor_id;sensor_type;location;lat;lon;timestamp;P1;durP1;ratioP1;P2;durP2;ratioP2
45944;SDS011;31655;48.972;10.686;2023-02-28T01:18:13;8.23;;;4.70;;
45944;SDS011;31655;48.972;10.686;2023-02-28T01:20:39;8.43;;;5.50;;
45944;SDS011;31655;48.972;10.686;2023-02-28T01:23:05;7.25;;;5.43;;
45944;SDS011;31655;48.972;10.686;2023-02-28T01:25:33;15.35;;;6.07;;
45944;SDS011;31655;48.972;10.686;2023-02-28T01:28:01;10.43;;;5.47;;
45944;SDS011;31655;48.972;10.686;2023-02-28T01:30:27;12.55;;;7.10;;
45944;SDS011;31655;48.972;10.686;2023-02-28T01:32:54;8.00;;;4.95;;
45944;SDS011;31655;48.972;10.686;2023-02-28T01:35:20;13.30;;;6.68;;
45944;SDS011;31655;48.972;10.686;2023-02-28T01:37:47;9.95;;;5.72;;
45944;SDS011;31655;48.972;10.686;2023-02-28T01:40:14;10.65;;;6.35;;
45944;SDS011;31655;48.972;10.686;2023-02-28T01:42:46;7.47;;;5.40;;
45944;SDS011;31655;48.972;10.686;2023-02-28T01:45:55;13.00;;;6.18;;
45944;SDS011;31655;48.972;10.686;2023-02-28T01:48:48;13.52;;;5.97;;
45944;SDS011;31655;48.972;10.686;2023-02-28T01:51:54;11.10;;;6.72;;
45944;SDS011;31655;48.972;10.686;2023-02-28T02:50:18;11.88;;;6.35;;
45944;SDS011;31655;48.972;10.686;2023-02-28T02:53:02;14.18;;;6.75;;
45944;SDS011;31655;48.972;10.686;2023-02-28T02:55:46;13.05;;;6.88;;
45944;SDS011;31655;48.972;10.686;2023-02-28T02:58:24;16.67;;;6.80;;
45944;SDS011;31655;48.972;10.686;2023-02-28T03:01:01;13.25;;;7.53;;
45944;SDS011;31655;48.972;10.686;2023-02-28T03:04:08;11.43;;;7.03;;
45944;SDS011;31655;48.972;10.686;2023-02-28T03:06:40;13.88;;;7.43;;
45944;SDS011;31655;48.972;10.686;2023-02-28T03:09:14;13.25;;;6.75;;
45944;SDS011;31655;48.972;10.686;2023-02-28T03:11:43;16.77;;;7.68;;
45944;SDS011;31655;48.972;10.686;2023-02-28T03:25:07;12.13;;;7.18;;
45944;SDS011;31655;48.972;10.686;2023-02-28T03:30:26;16.35;;;7.75;;
45944;SDS011;31655;48.972;10.686;2023-02-28T03:33:35;16.90;;;7.10;;
45944;SDS011;31655;48.972;10.686;2023-02-28T03:36:41;19.50;;;8.85;;
45944;SDS011;31655;48.972;10.686;2023-02-28T03:39:37;12.40;;;6.80;;
45944;SDS011;31655;48.972;10.686;2023-02-28T03:42:19;13.93;;;8.32;;
45944;SDS011;31655;48.972;10.686;2023-02-28T03:44:48;13.77;;;7.55;;
45944;SDS011;31655;48.972;10.686;2023-02-28T03:47:16;14.75;;;6.72;;
45944;SDS011;31655;48.972;10.686;2023-02-28T03:49:48;12.68;;;7.63;;
45944;SDS011;31655;48.972;10.686;2023-02-28T03:52:15;14.45;;;7.78;;
45944;SDS011;31655;48.972;10.686;2023-02-28T03:54:48;13.88;;;7.60;;
45944;SDS011;31655;48.972;10.686;2023-02-28T03:57:43;20.50;;;8.30;;
45944;SDS011;31655;48.972;10.686;2023-02-28T04:00:19;11.50;;;7.57;;
45944;SDS011;31655;48.972;10.686;2023-02-28T04:02:50;18.00;;;7.40;;
45944;SDS011;31655;48.972;10.686;2023-02-28T04:05:48;22.67;;;8.60;;
45944;SDS011;31655;48.972;10.686;2023-02-28T04:08:29;21.95;;;8.57;;
45944;SDS011;31655;48.972;10.686;2023-02-28T04:11:04;19.38;;;7.47;;
45944;SDS011;31655;48.972;10.686;2023-02-28T04:13:53;16.80;;;7.60;;
45944;SDS011;31655;48.972;10.686;2023-02-28T04:16:19;25.75;;;8.70;;
45944;SDS011;31655;48.972;10.686;2023-02-28T04:18:51;15.63;;;7.85;;
45944;SDS011;31655;48.972;10.686;2023-02-28T04:21:41;17.52;;;8.75;;
45944;SDS011;31655;48.972;10.686;2023-02-28T04:24:17;43.08;;;14.63;;
45944;SDS011;31655;48.972;10.686;2023-02-28T04:27:08;18.17;;;7.65;;
45944;SDS011;31655;48.972;10.686;2023-02-28T04:30:05;23.88;;;10.40;;
45944;SDS011;31655;48.972;10.686;2023-02-28T04:32:54;20.02;;;10.13;;
45944;SDS011;31655;48.972;10.686;2023-02-28T04:35:42;19.48;;;9.98;;
45944;SDS011;31655;48.972;10.686;2023-02-28T04:38:09;16.40;;;7.88;;
45944;SDS011;31655;48.972;10.686;2023-02-28T04:44:01;18.42;;;8.50;;
45944;SDS011;31655;48.972;10.686;2023-02-28T04:47:11;19.55;;;9.25;;
45944;SDS011;31655;48.972;10.686;2023-02-28T04:49:48;19.60;;;10.63;;
45944;SDS011;31655;48.972;10.686;2023-02-28T04:52:21;16.65;;;8.73;;
45944;SDS011;31655;48.972;10.686;2023-02-28T04:54:48;25.30;;;9.88;;
45944;SDS011;31655;48.972;10.686;2023-02-28T04:57:15;21.13;;;9.63;;
45944;SDS011;31655;48.972;10.686;2023-02-28T04:59:45;22.35;;;10.32;;
45944;SDS011;31655;48.972;10.686;2023-02-28T05:03:05;24.75;;;9.45;;
45944;SDS011;31655;48.972;10.686;2023-02-28T05:05:43;16.60;;;8.63;;
45944;SDS011;31655;48.972;10.686;2023-02-28T05:08:36;24.85;;;10.68;;
45944;SDS011;31655;48.972;10.686;2023-02-28T05:11:13;25.52;;;10.23;;
45944;SDS011;31655;48.972;10.686;2023-02-28T05:13:49;20.65;;;9.70;;
45944;SDS011;31655;48.972;10.686;2023-02-28T05:16:15;26.88;;;9.48;;
45944;SDS011;31655;48.972;10.686;2023-02-28T05:18:42;20.33;;;10.30;;
45944;SDS011;31655;48.972;10.686;2023-02-28T05:21:24;19.23;;;9.55;;
45944;SDS011;31655;48.972;10.686;2023-02-28T05:23:54;18.02;;;10.38;;
45944;SDS011;31655;48.972;10.686;2023-02-28T05:26:21;19.00;;;10.27;;
45944;SDS011;31655;48.972;10.686;2023-02-28T05:28:47;20.60;;;9.82;;
45944;SDS011;31655;48.972;10.686;2023-02-28T05:31:14;16.13;;;9.35;;
45944;SDS011;31655;48.972;10.686;2023-02-28T05:33:40;21.45;;;9.93;;
45944;SDS011;31655;48.972;10.686;2023-02-28T05:36:08;15.13;;;7.32;;
45944;SDS011;31655;48.972;10.686;2023-02-28T05:38:34;17.65;;;8.68;;
45944;SDS011;31655;48.972;10.686;2023-02-28T05:41:04;20.98;;;8.95;;
45944;SDS011;31655;48.972;10.686;2023-02-28T05:43:30;17.05;;;9.60;;
45944;SDS011;31655;48.972;10.686;2023-02-28T05:45:58;22.15;;;9.52;;
45944;SDS011;31655;48.972;10.686;2023-02-28T05:48:24;18.63;;;9.73;;
45944;SDS011;31655;48.972;10.686;2023-02-28T05:51:11;21.83;;;10.32;;
45944;SDS011;31655;48.972;10.686;2023-02-28T05:53:37;17.65;;;8.80;;
45944;SDS011;31655;48.972;10.686;2023-02-28T05:56:04;28.35;;;12.40;;
45944;SDS011;31655;48.972;10.686;2023-02-28T05:58:30;19.58;;;8.60;;
45944;SDS011;31655;48.972;10.686;2023-02-28T06:00:57;21.42;;;10.30;;
45944;SDS011;31655;48.972;10.686;2023-02-28T06:03:23;22.10;;;10.52;;
45944;SDS011;31655;48.972;10.686;2023-02-28T06:24:09;21.63;;;10.07;;
45944;SDS011;31655;48.972;10.686;2023-02-28T06:26:42;16.58;;;9.32;;
45944;SDS011;31655;48.972;10.686;2023-02-28T06:29:09;24.27;;;10.02;;
45944;SDS011;31655;48.972;10.686;2023-02-28T06:31:35;24.38;;;10.30;;
45944;SDS011;31655;48.972;10.686;2023-02-28T06:34:04;20.05;;;10.10;;
45944;SDS011;31655;48.972;10.686;2023-02-28T06:36:31;19.88;;;10.70;;
45944;SDS011;31655;48.972;10.686;2023-02-28T06:39:03;23.30;;;10.68;;
45944;SDS011;31655;48.972;10.686;2023-02-28T06:41:30;24.95;;;10.18;;
45944;SDS011;31655;48.972;10.686;2023-02-28T06:44:13;21.00;;;10.43;;
45944;SDS011;31655;48.972;10.686;2023-02-28T06:46:42;18.00;;;9.77;;
45944;SDS011;31655;48.972;10.686;2023-02-28T06:49:09;25.27;;;12.45;;
45944;SDS011;31655;48.972;10.686;2023-02-28T06:51:41;17.92;;;8.52;;
45944;SDS011;31655;48.972;10.686;2023-02-28T06:54:10;24.20;;;11.95;;
45944;SDS011;31655;48.972;10.686;2023-02-28T06:56:37;19.75;;;9.80;;
45944;SDS011;31655;48.972;10.686;2023-02-28T06:59:04;18.48;;;9.60;;
45944;SDS011;31655;48.972;10.686;2023-02-28T07:01:30;23.88;;;9.80;;
45944;SDS011;31655;48.972;10.686;2023-02-28T07:03:59;18.27;;;9.30;;
45944;SDS011;31655;48.972;10.686;2023-02-28T07:06:29;17.92;;;9.00;;
45944;SDS011;31655;48.972;10.686;2023-02-28T07:08:55;16.58;;;9.52;;
45944;SDS011;31655;48.972;10.686;2023-02-28T07:11:22;16.13;;;8.88;;
45944;SDS011;31655;48.972;10.686;2023-02-28T07:13:56;15.88;;;8.50;;
45944;SDS011;31655;48.972;10.686;2023-02-28T07:16:22;15.88;;;8.90;;
45944;SDS011;31655;48.972;10.686;2023-02-28T07:18:49;21.52;;;10.25;;
45944;SDS011;31655;48.972;10.686;2023-02-28T07:21:16;19.15;;;9.30;;
45944;SDS011;31655;48.972;10.686;2023-02-28T07:23:44;16.17;;;7.93;;
45944;SDS011;31655;48.972;10.686;2023-02-28T07:26:13;22.08;;;9.45;;
45944;SDS011;31655;48.972;10.686;2023-02-28T07:28:42;21.73;;;9.30;;
45944;SDS011;31655;48.972;10.686;2023-02-28T07:31:10;15.93;;;8.80;;
45944;SDS011;31655;48.972;10.686;2023-02-28T07:33:36;18.77;;;9.57;;
45944;SDS011;31655;48.972;10.686;2023-02-28T07:36:07;16.98;;;6.95;;
45944;SDS011;31655;48.972;10.686;2023-02-28T07:38:39;16.17;;;8.93;;
45944;SDS011;31655;48.972;10.686;2023-02-28T07:41:10;13.52;;;8.27;;
45944;SDS011;31655;48.972;10.686;2023-02-28T07:43:40;16.00;;;7.75;;
45944;SDS011;31655;48.972;10.686;2023-02-28T07:46:16;15.93;;;8.15;;
45944;SDS011;31655;48.972;10.686;2023-02-28T07:48:57;17.35;;;7.28;;
45944;SDS011;31655;48.972;10.686;2023-02-28T07:51:24;21.25;;;8.40;;
45944;SDS011;31655;48.972;10.686;2023-02-28T07:53:52;14.02;;;7.15;;
45944;SDS011;31655;48.972;10.686;2023-02-28T07:56:19;14.82;;;8.23;;
45944;SDS011;31655;48.972;10.686;2023-02-28T07:58:51;14.68;;;7.95;;
45944;SDS011;31655;48.972;10.686;2023-02-28T08:01:18;16.15;;;7.38;;
45944;SDS011;31655;48.972;10.686;2023-02-28T08:03:45;15.75;;;7.85;;
45944;SDS011;31655;48.972;10.686;2023-02-28T08:06:21;15.10;;;9.23;;
45944;SDS011;31655;48.972;10.686;2023-02-28T08:08:48;17.80;;;9.77;;
45944;SDS011;31655;48.972;10.686;2023-02-28T08:11:15;14.45;;;7.95;;
45944;SDS011;31655;48.972;10.686;2023-02-28T08:13:41;17.00;;;9.25;;
45944;SDS011;31655;48.972;10.686;2023-02-28T08:16:09;17.85;;;9.13;;
45944;SDS011;31655;48.972;10.686;2023-02-28T08:18:35;14.20;;;8.40;;
45944;SDS011;31655;48.972;10.686;2023-02-28T08:21:09;16.38;;;9.07;;
45944;SDS011;31655;48.972;10.686;2023-02-28T08:23:35;14.65;;;8.88;;
45944;SDS011;31655;48.972;10.686;2023-02-28T08:26:02;16.40;;;7.82;;
45944;SDS011;31655;48.972;10.686;2023-02-28T08:28:30;14.93;;;7.95;;
45944;SDS011;31655;48.972;10.686;2023-02-28T08:30:56;11.82;;;7.40;;
45944;SDS011;31655;48.972;10.686;2023-02-28T08:33:22;15.05;;;8.50;;
45944;SDS011;31655;48.972;10.686;2023-02-28T08:35:48;15.82;;;8.85;;
45944;SDS011;31655;48.972;10.686;2023-02-28T08:38:14;17.83;;;9.20;;
45944;SDS011;31655;48.972;10.686;2023-02-28T08:40:40;20.13;;;10.40;;
45944;SDS011;31655;48.972;10.686;2023-02-28T08:43:08;11.32;;;6.82;;
45944;SDS011;31655;48.972;10.686;2023-02-28T08:45:34;13.00;;;7.07;;
45944;SDS011;31655;48.972;10.686;2023-02-28T08:48:00;11.30;;;6.78;;
45944;SDS011;31655;48.972;10.686;2023-02-28T08:50:26;13.05;;;7.72;;
45944;SDS011;31655;48.972;10.686;2023-02-28T08:52:52;13.55;;;8.07;;
45944;SDS011;31655;48.972;10.686;2023-02-28T08:55:18;11.30;;;7.43;;
45944;SDS011;31655;48.972;10.686;2023-02-28T08:57:43;15.13;;;9.40;;
45944;SDS011;31655;48.972;10.686;2023-02-28T09:00:09;22.55;;;10.07;;
45944;SDS011;31655;48.972;10.686;2023-02-28T09:02:38;21.75;;;11.32;;
45944;SDS011;31655;48.972;10.686;2023-02-28T09:05:04;24.48;;;12.52;;
45944;SDS011;31655;48.972;10.686;2023-02-28T09:07:30;13.52;;;8.23;;
45944;SDS011;31655;48.972;10.686;2023-02-28T09:09:56;17.55;;;9.52;;
45944;SDS011;31655;48.972;10.686;2023-02-28T09:12:26;11.13;;;7.78;;
45944;SDS011;31655;48.972;10.686;2023-02-28T09:14:56;15.55;;;8.27;;
45944;SDS011;31655;48.972;10.686;2023-02-28T09:17:22;12.82;;;7.00;;
45944;SDS011;31655;48.972;10.686;2023-02-28T09:19:48;19.50;;;7.60;;
45944;SDS011;31655;48.972;10.686;2023-02-28T09:22:14;16.27;;;6.93;;
45944;SDS011;31655;48.972;10.686;2023-02-28T09:24:42;11.35;;;6.75;;
45944;SDS011;31655;48.972;10.686;2023-02-28T09:27:09;11.13;;;6.47;;
45944;SDS011;31655;48.972;10.686;2023-02-28T09:29:35;10.73;;;7.60;;
45944;SDS011;31655;48.972;10.686;2023-02-28T09:32:01;12.02;;;7.40;;
45944;SDS011;31655;48.972;10.686;2023-02-28T09:34:30;11.25;;;6.88;;
45944;SDS011;31655;48.972;10.686;2023-02-28T09:36:57;10.70;;;7.28;;
45944;SDS011;31655;48.972;10.686;2023-02-28T09:39:23;10.13;;;6.47;;
45944;SDS011;31655;48.972;10.686;2023-02-28T09:41:51;10.20;;;6.82;;
45944;SDS011;31655;48.972;10.686;2023-02-28T09:44:30;13.52;;;7.20;;
45944;SDS011;31655;48.972;10.686;2023-02-28T09:47:45;12.50;;;8.00;;
45944;SDS011;31655;48.972;10.686;2023-02-28T09:50:00;10.27;;;6.63;;
45944;SDS011;31655;48.972;10.686;2023-02-28T09:52:48;11.77;;;7.03;;
45944;SDS011;31655;48.972;10.686;2023-02-28T09:57:41;10.70;;;7.28;;
45944;SDS011;31655;48.972;10.686;2023-02-28T10:05:24;12.23;;;7.38;;
45944;SDS011;31655;48.972;10.686;2023-02-28T10:08:13;14.02;;;6.85;;
45944;SDS011;31655;48.972;10.686;2023-02-28T10:10:44;12.13;;;7.40;;
45944;SDS011;31655;48.972;10.686;2023-02-28T10:13:23;11.07;;;7.35;;
45944;SDS011;31655;48.972;10.686;2023-02-28T10:15:59;11.98;;;7.40;;
45944;SDS011;31655;48.972;10.686;2023-02-28T10:18:37;13.55;;;8.93;;
45944;SDS011;31655;48.972;10.686;2023-02-28T10:21:30;11.95;;;6.97;;
45944;SDS011;31655;48.972;10.686;2023-02-28T10:24:05;19.55;;;10.90;;
45944;SDS011;31655;48.972;10.686;2023-02-28T10:30:09;11.07;;;7.15;;
45944;SDS011;31655;48.972;10.686;2023-02-28T10:32:36;12.95;;;7.72;;
45944;SDS011;31655;48.972;10.686;2023-02-28T10:35:10;13.88;;;7.18;;
45944;SDS011;31655;48.972;10.686;2023-02-28T10:37:48;13.77;;;8.60;;
45944;SDS011;31655;48.972;10.686;2023-02-28T10:42:59;18.23;;;10.35;;
45944;SDS011;31655;48.972;10.686;2023-02-28T10:45:25;10.40;;;6.53;;
45944;SDS011;31655;48.972;10.686;2023-02-28T10:47:57;14.23;;;8.23;;
45944;SDS011;31655;48.972;10.686;2023-02-28T10:53:13;19.75;;;11.15;;
45944;SDS011;31655;48.972;10.686;2023-02-28T11:01:18;11.95;;;7.63;;
45944;SDS011;31655;48.972;10.686;2023-02-28T11:03:47;14.57;;;7.90;;
45944;SDS011;31655;48.972;10.686;2023-02-28T11:06:15;12.75;;;8.18;;
45944;SDS011;31655;48.972;10.686;2023-02-28T11:08:47;14.70;;;8.10;;
45944;SDS011;31655;48.972;10.686;2023-02-28T11:11:17;19.05;;;9.75;;
45944;SDS011;31655;48.972;10.686;2023-02-28T11:13:45;14.75;;;8.30;;
45944;SDS011;31655;48.972;10.686;2023-02-28T11:16:13;21.30;;;9.48;;
45944;SDS011;31655;48.972;10.686;2023-02-28T11:18:42;14.23;;;7.95;;
45944;SDS011;31655;48.972;10.686;2023-02-28T11:21:20;26.83;;;12.52;;
45944;SDS011;31655;48.972;10.686;2023-02-28T11:23:56;12.63;;;7.57;;
45944;SDS011;31655;48.972;10.686;2023-02-28T11:26:43;13.18;;;8.45;;
45944;SDS011;31655;48.972;10.686;2023-02-28T11:34:43;14.07;;;8.63;;
45944;SDS011;31655;48.972;10.686;2023-02-28T11:37:11;13.00;;;7.63;;
45944;SDS011;31655;48.972;10.686;2023-02-28T11:39:43;11.77;;;7.90;;
45944;SDS011;31655;48.972;10.686;2023-02-28T11:42:23;12.82;;;7.72;;
45944;SDS011;31655;48.972;10.686;2023-02-28T11:47:38;15.35;;;7.93;;
45944;SDS011;31655;48.972;10.686;2023-02-28T11:58:29;12.15;;;7.25;;
45944;SDS011;31655;48.972;10.686;2023-02-28T12:03:58;15.45;;;8.70;;
45944;SDS011;31655;48.972;10.686;2023-02-28T12:06:47;14.48;;;8.77;;
45944;SDS011;31655;48.972;10.686;2023-02-28T12:12:38;14.30;;;8.90;;
45944;SDS011;31655;48.972;10.686;2023-02-28T12:18:21;16.13;;;8.10;;
45944;SDS011;31655;48.972;10.686;2023-02-28T12:21:15;17.58;;;9.30;;
45944;SDS011;31655;48.972;10.686;2023-02-28T12:23:56;19.05;;;9.27;;
45944;SDS011;31655;48.972;10.686;2023-02-28T12:31:49;16.42;;;9.45;;
45944;SDS011;31655;48.972;10.686;2023-02-28T12:34:38;19.38;;;8.35;;
45944;SDS011;31655;48.972;10.686;2023-02-28T12:37:10;21.80;;;12.13;;
45944;SDS011;31655;48.972;10.686;2023-02-28T12:40:05;16.67;;;9.65;;
45944;SDS011;31655;48.972;10.686;2023-02-28T12:42:41;16.02;;;9.52;;
45944;SDS011;31655;48.972;10.686;2023-02-28T12:47:38;13.60;;;8.43;;
45944;SDS011;31655;48.972;10.686;2023-02-28T12:50:06;15.75;;;8.15;;
45944;SDS011;31655;48.972;10.686;2023-02-28T12:55:41;21.02;;;10.90;;
45944;SDS011;31655;48.972;10.686;2023-02-28T12:58:25;18.10;;;8.40;;
45944;SDS011;31655;48.972;10.686;2023-02-28T13:06:55;23.05;;;9.88;;
45944;SDS011;31655;48.972;10.686;2023-02-28T13:09:53;20.05;;;10.52;;
45944;SDS011;31655;48.972;10.686;2023-02-28T13:12:24;17.48;;;7.78;;
45944;SDS011;31655;48.972;10.686;2023-02-28T13:14:51;16.50;;;7.47;;
45944;SDS011;31655;48.972;10.686;2023-02-28T13:17:41;17.80;;;9.93;;
45944;SDS011;31655;48.972;10.686;2023-02-28T13:20:14;16.38;;;9.07;;
45944;SDS011;31655;48.972;10.686;2023-02-28T13:22:46;14.43;;;8.43;;
45944;SDS011;31655;48.972;10.686;2023-02-28T13:28:10;27.10;;;11.90;;
45944;SDS011;31655;48.972;10.686;2023-02-28T13:35:43;21.00;;;11.13;;
45944;SDS011;31655;48.972;10.686;2023-02-28T13:38:44;24.70;;;10.50;;
45944;SDS011;31655;48.972;10.686;2023-02-28T13:46:26;16.05;;;8.98;;
45944;SDS011;31655;48.972;10.686;2023-02-28T13:48:53;20.25;;;8.95;;
45944;SDS011;31655;48.972;10.686;2023-02-28T13:53:59;16.05;;;9.20;;
45944;SDS011;31655;48.972;10.686;2023-02-28T13:56:34;18.17;;;9.50;;
45944;SDS011;31655;48.972;10.686;2023-02-28T13:59:23;14.38;;;8.90;;
45944;SDS011;31655;48.972;10.686;2023-02-28T14:02:03;17.25;;;9.27;;
45944;SDS011;31655;48.972;10.686;2023-02-28T14:07:39;16.67;;;8.77;;
45944;SDS011;31655;48.972;10.686;2023-02-28T14:10:27;16.40;;;9.30;;
45944;SDS011;31655;48.972;10.686;2023-02-28T14:18:16;15.00;;;9.10;;
45944;SDS011;31655;48.972;10.686;2023-02-28T14:20:42;18.77;;;10.07;;
45944;SDS011;31655;48.972;10.686;2023-02-28T14:23:12;15.65;;;8.52;;
45944;SDS011;31655;48.972;10.686;2023-02-28T14:37:16;16.17;;;10.02;;
45944;SDS011;31655;48.972;10.686;2023-02-28T14:39:45;17.83;;;8.95;;
45944;SDS011;31655;48.972;10.686;2023-02-28T14:45:01;16.17;;;9.25;;
45944;SDS011;31655;48.972;10.686;2023-02-28T14:47:28;16.45;;;10.38;;
45944;SDS011;31655;48.972;10.686;2023-02-28T14:49:58;17.38;;;9.57;;
45944;SDS011;31655;48.972;10.686;2023-02-28T14:52:26;18.90;;;10.13;;
45944;SDS011;31655;48.972;10.686;2023-02-28T14:55:06;18.85;;;10.25;;
45944;SDS011;31655;48.972;10.686;2023-02-28T14:57:52;18.67;;;10.05;;
45944;SDS011;31655;48.972;10.686;2023-02-28T15:00:27;17.13;;;9.27;;
45944;SDS011;31655;48.972;10.686;2023-02-28T15:02:58;17.27;;;9.48;;
45944;SDS011;31655;48.972;10.686;2023-02-28T15:08:04;18.73;;;10.38;;
45944;SDS011;31655;48.972;10.686;2023-02-28T15:10:32;17.10;;;8.95;;
45944;SDS011;31655;48.972;10.686;2023-02-28T15:15:26;18.98;;;9.82;;
45944;SDS011;31655;48.972;10.686;2023-02-28T15:18:07;21.63;;;10.25;;
45944;SDS011;31655;48.972;10.686;2023-02-28T15:20:46;19.02;;;11.02;;
45944;SDS011;31655;48.972;10.686;2023-02-28T15:23:12;18.05;;;11.30;;
45944;SDS011;31655;48.972;10.686;2023-02-28T15:25:38;18.02;;;10.13;;
45944;SDS011;31655;48.972;10.686;2023-02-28T15:28:09;16.88;;;9.77;;
45944;SDS011;31655;48.972;10.686;2023-02-28T15:30:39;19.15;;;10.65;;
45944;SDS011;31655;48.972;10.686;2023-02-28T15:33:07;18.52;;;10.50;;
45944;SDS011;31655;48.972;10.686;2023-02-28T15:35:45;16.85;;;9.50;;
45944;SDS011;31655;48.972;10.686;2023-02-28T15:40:41;24.73;;;11.75;;
45944;SDS011;31655;48.972;10.686;2023-02-28T15:43:13;17.92;;;11.32;;
45944;SDS011;31655;48.972;10.686;2023-02-28T15:50:42;17.42;;;10.68;;
45944;SDS011;31655;48.972;10.686;2023-02-28T15:53:13;19.10;;;10.00;;
45944;SDS011;31655;48.972;10.686;2023-02-28T15:56:02;22.00;;;10.20;;
45944;SDS011;31655;48.972;10.686;2023-02-28T15:58:30;23.27;;;11.23;;
45944;SDS011;31655;48.972;10.686;2023-02-28T16:01:16;20.33;;;11.30;;
45944;SDS011;31655;48.972;10.686;2023-02-28T16:03:49;29.58;;;14.52;;
45944;SDS011;31655;48.972;10.686;2023-02-28T16:08:42;32.88;;;16.33;;
45944;SDS011;31655;48.972;10.686;2023-02-28T16:11:08;20.00;;;10.07;;
45944;SDS011;31655;48.972;10.686;2023-02-28T16:13:35;19.88;;;10.73;;
45944;SDS011;31655;48.972;10.686;2023-02-28T16:16:01;16.48;;;9.65;;
45944;SDS011;31655;48.972;10.686;2023-02-28T16:18:27;21.92;;;11.77;;
45944;SDS011;31655;48.972;10.686;2023-02-28T16:20:53;17.05;;;10.00;;
45944;SDS011;31655;48.972;10.686;2023-02-28T16:23:18;17.88;;;10.52;;
45944;SDS011;31655;48.972;10.686;2023-02-28T16:25:44;19.25;;;9.93;;
45944;SDS011;31655;48.972;10.686;2023-02-28T16:28:30;17.38;;;10.25;;
45944;SDS011;31655;48.972;10.686;2023-02-28T16:30:59;18.42;;;11.50;;
45944;SDS011;31655;48.972;10.686;2023-02-28T16:33:27;18.15;;;10.93;;
45944;SDS011;31655;48.972;10.686;2023-02-28T16:35:53;17.38;;;10.68;;
45944;SDS011;31655;48.972;10.686;2023-02-28T16:38:19;19.05;;;10.82;;
45944;SDS011;31655;48.972;10.686;2023-02-28T16:40:46;21.45;;;12.23;;
45944;SDS011;31655;48.972;10.686;2023-02-28T16:43:18;19.77;;;10.18;;
45944;SDS011;31655;48.972;10.686;2023-02-28T16:45:46;19.90;;;10.07;;
45944;SDS011;31655;48.972;10.686;2023-02-28T16:48:13;18.65;;;10.57;;
45944;SDS011;31655;48.972;10.686;2023-02-28T16:50:39;20.40;;;10.52;;
45944;SDS011;31655;48.972;10.686;2023-02-28T16:53:05;20.60;;;11.00;;
45944;SDS011;31655;48.972;10.686;2023-02-28T16:55:31;19.63;;;10.52;;
45944;SDS011;31655;48.972;10.686;2023-02-28T16:57:59;21.38;;;11.45;;
45944;SDS011;31655;48.972;10.686;2023-02-28T17:00:25;22.30;;;12.10;;
45944;SDS011;31655;48.972;10.686;2023-02-28T17:02:52;19.88;;;11.02;;
45944;SDS011;31655;48.972;10.686;2023-02-28T17:05:19;22.67;;;11.40;;
45944;SDS011;31655;48.972;10.686;2023-02-28T17:07:46;22.42;;;10.73;;
45944;SDS011;31655;48.972;10.686;2023-02-28T17:10:13;24.05;;;11.80;;
45944;SDS011;31655;48.972;10.686;2023-02-28T17:12:47;24.98;;;11.45;;
45944;SDS011;31655;48.972;10.686;2023-02-28T17:15:13;26.70;;;11.93;;
45944;SDS011;31655;48.972;10.686;2023-02-28T17:17:41;23.67;;;11.52;;
45944;SDS011;31655;48.972;10.686;2023-02-28T17:20:14;22.52;;;10.20;;
45944;SDS011;31655;48.972;10.686;2023-02-28T17:25:08;20.65;;;10.40;;
45944;SDS011;31655;48.972;10.686;2023-02-28T17:27:35;23.67;;;11.20;;
45944;SDS011;31655;48.972;10.686;2023-02-28T17:30:02;20.63;;;11.45;;
45944;SDS011;31655;48.972;10.686;2023-02-28T17:32:34;19.65;;;11.15;;
45944;SDS011;31655;48.972;10.686;2023-02-28T17:35:00;23.73;;;11.95;;
45944;SDS011;31655;48.972;10.686;2023-02-28T17:37:26;26.00;;;12.98;;
45944;SDS011;31655;48.972;10.686;2023-02-28T17:39:52;25.65;;;12.63;;
45944;SDS011;31655;48.972;10.686;2023-02-28T17:42:18;22.23;;;10.57;;
45944;SDS011;31655;48.972;10.686;2023-02-28T17:44:44;24.45;;;11.07;;
45944;SDS011;31655;48.972;10.686;2023-02-28T17:47:11;21.73;;;11.48;;
45944;SDS011;31655;48.972;10.686;2023-02-28T17:49:37;21.35;;;10.85;;
45944;SDS011;31655;48.972;10.686;2023-02-28T17:52:03;19.58;;;11.07;;
45944;SDS011;31655;48.972;10.686;2023-02-28T17:54:29;26.58;;;11.30;;
45944;SDS011;31655;48.972;10.686;2023-02-28T17:56:56;24.65;;;12.25;;
45944;SDS011;31655;48.972;10.686;2023-02-28T17:59:21;27.20;;;13.45;;
45944;SDS011;31655;48.972;10.686;2023-02-28T18:01:47;23.77;;;12.75;;
45944;SDS011;31655;48.972;10.686;2023-02-28T18:04:13;23.23;;;12.93;;
45944;SDS011;31655;48.972;10.686;2023-02-28T18:06:45;26.17;;;13.75;;
45944;SDS011;31655;48.972;10.686;2023-02-28T18:09:14;22.52;;;12.55;;
45944;SDS011;31655;48.972;10.686;2023-02-28T18:11:50;22.92;;;12.43;;
45944;SDS011;31655;48.972;10.686;2023-02-28T18:14:17;25.73;;;12.32;;
45944;SDS011;31655;48.972;10.686;2023-02-28T18:16:44;28.92;;;13.15;;
45944;SDS011;31655;48.972;10.686;2023-02-28T18:19:10;26.27;;;13.32;;
45944;SDS011;31655;48.972;10.686;2023-02-28T18:21:41;21.60;;;11.23;;
45944;SDS011;31655;48.972;10.686;2023-02-28T18:24:08;21.08;;;12.13;;
45944;SDS011;31655;48.972;10.686;2023-02-28T18:26:35;22.00;;;11.85;;
45944;SDS011;31655;48.972;10.686;2023-02-28T18:29:01;23.05;;;12.68;;
45944;SDS011;31655;48.972;10.686;2023-02-28T18:31:27;30.92;;;13.23;;
45944;SDS011;31655;48.972;10.686;2023-02-28T18:33:53;28.70;;;13.82;;
45944;SDS011;31655;48.972;10.686;2023-02-28T18:36:20;22.95;;;12.45;;
45944;SDS011;31655;48.972;10.686;2023-02-28T18:38:46;21.40;;;11.68;;
45944;SDS011;31655;48.972;10.686;2023-02-28T18:41:12;28.48;;;12.80;;
45944;SDS011;31655;48.972;10.686;2023-02-28T18:43:38;23.67;;;13.13;;
45944;SDS011;31655;48.972;10.686;2023-02-28T18:46:05;23.60;;;11.05;;
45944;SDS011;31655;48.972;10.686;2023-02-28T18:48:32;28.90;;;12.10;;
45944;SDS011;31655;48.972;10.686;2023-02-28T18:51:04;20.58;;;11.98;;
45944;SDS011;31655;48.972;10.686;2023-02-28T18:53:32;22.23;;;12.80;;
45944;SDS011;31655;48.972;10.686;2023-02-28T18:55:59;24.20;;;12.32;;
45944;SDS011;31655;48.972;10.686;2023-02-28T18:58:25;21.50;;;12.43;;
45944;SDS011;31655;48.972;10.686;2023-02-28T19:00:51;22.67;;;13.07;;
45944;SDS011;31655;48.972;10.686;2023-02-28T19:03:18;23.52;;;11.77;;
45944;SDS011;31655;48.972;10.686;2023-02-28T19:05:44;25.25;;;12.27;;
45944;SDS011;31655;48.972;10.686;2023-02-28T19:08:11;24.35;;;12.23;;
45944;SDS011;31655;48.972;10.686;2023-02-28T19:10:37;25.88;;;13.30;;
45944;SDS011;31655;48.972;10.686;2023-02-28T19:13:04;24.17;;;12.57;;
45944;SDS011;31655;48.972;10.686;2023-02-28T19:15:32;25.30;;;13.13;;
45944;SDS011;31655;48.972;10.686;2023-02-28T19:17:58;22.77;;;12.05;;
45944;SDS011;31655;48.972;10.686;2023-02-28T19:20:24;25.33;;;12.70;;
45944;SDS011;31655;48.972;10.686;2023-02-28T19:22:50;26.02;;;13.23;;
45944;SDS011;31655;48.972;10.686;2023-02-28T19:25:16;23.58;;;12.18;;
45944;SDS011;31655;48.972;10.686;2023-02-28T19:27:42;20.08;;;12.00;;
45944;SDS011;31655;48.972;10.686;2023-02-28T19:30:09;26.23;;;12.27;;
45944;SDS011;31655;48.972;10.686;2023-02-28T19:32:35;25.75;;;12.10;;